Time;durP1;ratioP1;P1;durP2;ratioP2;P2;SDS_P1;SDS_P2;PMS_P1;PMS_P2;Temp;Humidity;BMP_temperature;BMP_pressure;BME280_temperature;BME280_humidity;BME280_pressure;Samples;Min_cycle;Max_cycle;Signal;HPM_P1;HPM_P2
2022/06/09 00:01:55;;;;;;;13.07;5.63;;;16.40;99.90;;;;;;5092426;28;20071;-76
2022/06/09 00:04:34;;;;;;;15.50;6.25;;;16.40;99.90;;;;;;5089467;28;20107;-77
2022/06/09 00:07:12;;;;;;;17.60;6.55;;;16.40;99.90;;;;;;5091301;28;20035;-76
2022/06/09 00:09:50;;;;;;;16.10;6.60;;;16.30;99.90;;;;;;5092637;28;20352;-77
2022/06/09 00:12:15;;;;;;;15.00;6.40;;;16.30;99.90;;;;;;5092087;28;20028;-77
2022/06/09 00:14:41;;;;;;;12.80;6.10;;;16.30;99.90;;;;;;5092348;28;20035;-77
2022/06/09 00:17:07;;;;;;;13.25;5.68;;;16.30;99.90;;;;;;5092224;28;20052;-77
2022/06/09 00:19:33;;;;;;;15.98;6.50;;;16.30;99.90;;;;;;5092250;28;20026;-77
2022/06/09 00:21:58;;;;;;;19.38;7.10;;;16.30;99.90;;;;;;5092195;28;20495;-77
2022/06/09 00:24:24;;;;;;;15.63;6.15;;;16.30;99.90;;;;;;5092539;28;20028;-76
2022/06/09 00:26:50;;;;;;;17.15;6.53;;;16.30;99.90;;;;;;5092085;28;20032;-76
2022/06/09 00:29:15;;;;;;;17.45;6.13;;;16.30;99.90;;;;;;5092586;28;20361;-76
2022/06/09 00:31:41;;;;;;;17.30;6.35;;;16.30;99.90;;;;;;5092328;28;20028;-75
2022/06/09 00:34:07;;;;;;;19.67;5.97;;;16.30;99.90;;;;;;5092004;28;20020;-76
2022/06/09 00:36:33;;;;;;;12.27;4.88;;;16.20;99.90;;;;;;5091830;28;20023;-76
2022/06/09 00:38:59;;;;;;;17.90;5.03;;;16.20;99.90;;;;;;5091803;28;20112;-75
2022/06/09 00:41:26;;;;;;;12.80;5.38;;;16.30;99.90;;;;;;5091816;28;20127;-76
2022/06/09 00:43:52;;;;;;;15.43;4.82;;;16.30;99.90;;;;;;5091870;28;20517;-75
2022/06/09 00:46:25;;;;;;;13.52;5.15;;;16.20;99.90;;;;;;5091974;28;20036;-75
2022/06/09 00:48:57;;;;;;;13.07;5.63;;;16.20;99.90;;;;;;5092070;28;20024;-76
2022/06/09 00:51:33;;;;;;;18.35;4.78;;;16.20;99.90;;;;;;5091559;28;20483;-75
2022/06/09 00:54:29;;;;;;;14.30;4.43;;;16.20;99.90;;;;;;5092097;28;20036;-75
2022/06/09 00:57:01;;;;;;;17.52;4.75;;;16.20;99.90;;;;;;5091547;28;20383;-76
2022/06/09 00:59:28;;;;;;;16.40;4.30;;;16.10;99.90;;;;;;5092410;28;20030;-76
2022/06/09 01:01:55;;;;;;;14.05;4.45;;;16.10;99.90;;;;;;5094502;28;20020;-77
2022/06/09 01:04:22;;;;;;;14.18;4.22;;;16.00;99.90;;;;;;5094258;28;20054;-77
2022/06/09 01:06:55;;;;;;;14.45;4.13;;;16.00;99.90;;;;;;5095715;28;20032;-76
2022/06/09 01:09:24;;;;;;;15.10;4.95;;;16.00;99.90;;;;;;5094176;28;20091;-77
2022/06/09 01:11:52;;;;;;;16.10;4.30;;;16.00;99.90;;;;;;5096034;28;20024;-76
2022/06/09 01:14:22;;;;;;;14.25;3.85;;;15.90;99.90;;;;;;5095812;28;20641;-77
2022/06/09 01:17:15;;;;;;;15.68;4.22;;;15.90;99.90;;;;;;5093465;28;20123;-76
2022/06/09 01:19:48;;;;;;;14.93;4.97;;;15.90;99.90;;;;;;5095153;28;20023;-77
2022/06/09 01:22:23;;;;;;;15.77;4.10;;;15.80;99.90;;;;;;5096100;28;20024;-77
2022/06/09 01:25:33;;;;;;;14.85;4.10;;;15.80;99.90;;;;;;5095363;28;20435;-77
2022/06/09 01:28:02;;;;;;;19.10;4.97;;;15.80;99.90;;;;;;5075261;28;20055;-76
2022/06/09 01:30:34;;;;;;;15.38;4.22;;;15.70;99.90;;;;;;5095320;28;20027;-77
2022/06/09 01:33:12;;;;;;;13.77;3.88;;;15.70;99.90;;;;;;5095531;28;20035;-77
2022/06/09 01:35:51;;;;;;;15.57;4.18;;;15.80;99.90;;;;;;5095170;28;20032;-77
2022/06/09 01:38:17;;;;;;;17.00;3.97;;;15.80;99.90;;;;;;5095210;28;20028;-77
2022/06/09 01:40:43;;;;;;;15.07;4.45;;;15.70;99.90;;;;;;5095180;28;20490;-77
2022/06/09 01:43:08;;;;;;;11.70;4.00;;;15.70;99.90;;;;;;5095319;28;20027;-76
2022/06/09 01:46:00;;;;;;;12.27;3.67;;;15.80;99.90;;;;;;5095147;28;20476;-76
2022/06/09 01:48:28;;;;;;;13.75;3.50;;;15.80;99.90;;;;;;5094829;28;20032;-77
2022/06/09 01:51:07;;;;;;;13.93;3.90;;;15.80;99.90;;;;;;5092977;28;20028;-77
2022/06/09 01:53:40;;;;;;;20.50;4.22;;;15.80;99.90;;;;;;5094622;28;20027;-77
2022/06/09 01:56:23;;;;;;;13.52;3.83;;;15.90;99.90;;;;;;5095373;28;20028;-77
2022/06/09 01:58:53;;;;;;;14.13;4.35;;;15.90;99.90;;;;;;5095051;28;20156;-76
2022/06/09 02:01:26;;;;;;;16.58;4.53;;;15.90;99.90;;;;;;5094909;28;20047;-76
2022/06/09 02:03:56;;;;;;;13.20;4.45;;;15.90;99.90;;;;;;5094670;28;20024;-76
2022/06/09 02:06:22;;;;;;;17.73;3.97;;;15.90;99.90;;;;;;5095076;28;20051;-76
2022/06/09 02:08:48;;;;;;;15.85;5.10;;;15.80;99.90;;;;;;5094798;28;20028;-75
2022/06/09 02:11:14;;;;;;;17.40;4.20;;;15.90;99.90;;;;;;5094921;28;20081;-75
2022/06/09 02:13:48;;;;;;;17.13;4.47;;;15.80;99.90;;;;;;5093889;28;20028;-75
2022/06/09 02:16:17;;;;;;;16.17;4.20;;;15.80;99.90;;;;;;5094686;28;20084;-76
2022/06/09 02:18:46;;;;;;;15.65;3.97;;;15.80;99.90;;;;;;5094707;28;20024;-76
2022/06/09 02:21:20;;;;;;;17.55;4.28;;;15.70;99.90;;;;;;5094749;28;20024;-76
2022/06/09 02:23:47;;;;;;;17.33;4.95;;;15.70;99.90;;;;;;5094540;28;20028;-76
2022/06/09 02:26:14;;;;;;;14.02;5.20;;;15.70;99.90;;;;;;5094716;28;20105;-75
2022/06/09 02:28:39;;;;;;;16.90;4.72;;;15.70;99.90;;;;;;5091445;28;20036;-76
2022/06/09 02:31:05;;;;;;;16.48;4.03;;;15.70;99.90;;;;;;5094693;28;20024;-76
2022/06/09 02:33:31;;;;;;;17.40;5.07;;;15.60;99.90;;;;;;5094470;28;20031;-75
2022/06/09 02:35:57;;;;;;;14.40;4.60;;;15.60;99.90;;;;;;5094258;28;20020;-76
2022/06/09 02:38:23;;;;;;;18.75;4.50;;;15.60;99.90;;;;;;5094436;28;20043;-76
2022/06/09 02:40:49;;;;;;;19.17;5.70;;;15.50;99.90;;;;;;5094288;28;20468;-77
2022/06/09 02:43:15;;;;;;;15.05;4.25;;;15.50;99.90;;;;;;5094175;28;20517;-77
2022/06/09 02:45:42;;;;;;;18.23;4.50;;;15.50;99.90;;;;;;5093914;28;20047;-77
2022/06/09 02:48:08;;;;;;;15.45;4.10;;;15.50;99.90;;;;;;5094340;28;20073;-77
2022/06/09 02:50:35;;;;;;;12.32;4.00;;;15.40;99.90;;;;;;5093830;28;20034;-77
2022/06/09 02:53:01;;;;;;;19.13;4.60;;;15.40;99.90;;;;;;5093837;28;20099;-77
2022/06/09 02:55:28;;;;;;;17.00;4.68;;;15.40;99.90;;;;;;5093909;28;20020;-77
2022/06/09 02:57:53;;;;;;;15.57;4.88;;;15.40;99.90;;;;;;5093736;28;20024;-77
2022/06/09 03:00:20;;;;;;;13.57;4.50;;;15.40;99.90;;;;;;5093564;28;20039;-77
2022/06/09 03:02:54;;;;;;;17.08;5.07;;;15.40;99.90;;;;;;5092020;28;20024;-77
2022/06/09 03:05:20;;;;;;;19.52;4.90;;;15.40;99.90;;;;;;5093352;28;20159;-77
2022/06/09 03:07:45;;;;;;;17.15;4.75;;;15.30;99.90;;;;;;5093936;28;20103;-77
2022/06/09 03:10:11;;;;;;;18.85;4.70;;;15.30;99.90;;;;;;5093947;28;20025;-76
2022/06/09 03:12:36;;;;;;;16.52;5.85;;;15.20;99.90;;;;;;5093965;28;20098;-77
2022/06/09 03:15:07;;;;;;;17.92;4.88;;;15.20;99.90;;;;;;5093544;28;20016;-77
2022/06/09 03:17:34;;;;;;;23.65;4.45;;;15.20;99.90;;;;;;5094256;28;20063;-75
2022/06/09 03:19:59;;;;;;;18.13;5.15;;;15.20;99.90;;;;;;5093225;28;20020;-76
2022/06/09 03:22:25;;;;;;;18.98;4.95;;;15.10;99.90;;;;;;5093660;28;20023;-76
2022/06/09 03:24:51;;;;;;;18.08;4.82;;;15.10;99.90;;;;;;5092403;28;20036;-76
2022/06/09 03:27:17;;;;;;;18.92;4.82;;;15.20;99.90;;;;;;5093130;28;20020;-76
2022/06/09 03:29:42;;;;;;;17.35;4.65;;;15.10;99.90;;;;;;5093267;28;20053;-76
2022/06/09 03:32:08;;;;;;;23.85;5.32;;;15.10;99.90;;;;;;5093414;28;20099;-76
2022/06/09 03:34:34;;;;;;;20.35;5.10;;;15.10;99.90;;;;;;5093250;28;20420;-75
2022/06/09 03:37:00;;;;;;;15.88;4.90;;;15.10;99.90;;;;;;5092822;28;20048;-76
2022/06/09 03:39:26;;;;;;;12.82;4.15;;;15.10;99.90;;;;;;5092767;28;20055;-76
2022/06/09 03:41:51;;;;;;;15.88;4.50;;;15.10;99.90;;;;;;5092942;28;20024;-75
2022/06/09 03:44:17;;;;;;;16.55;4.55;;;15.10;99.90;;;;;;5092780;28;20427;-76
2022/06/09 03:46:42;;;;;;;15.48;4.65;;;15.10;99.90;;;;;;5092659;28;20040;-75
2022/06/09 03:49:09;;;;;;;17.45;4.25;;;15.10;99.90;;;;;;5092570;28;20024;-75
2022/06/09 03:51:35;;;;;;;16.42;4.85;;;15.10;99.90;;;;;;5093155;28;20032;-75
2022/06/09 03:54:01;;;;;;;16.67;4.68;;;15.20;99.90;;;;;;5092785;28;20386;-76
2022/06/09 03:56:27;;;;;;;18.52;5.03;;;15.10;99.90;;;;;;5092945;28;20445;-75
2022/06/09 03:58:53;;;;;;;17.52;5.60;;;15.20;99.90;;;;;;5092906;28;20073;-75
2022/06/09 04:01:18;;;;;;;18.27;4.88;;;15.20;99.90;;;;;;5092911;28;20414;-76
2022/06/09 04:03:45;;;;;;;16.33;4.03;;;15.20;99.90;;;;;;5092096;28;20074;-75
2022/06/09 04:06:17;;;;;;;17.45;4.47;;;15.30;99.90;;;;;;5092913;28;20035;-76
2022/06/09 04:08:43;;;;;;;16.48;4.82;;;15.30;99.90;;;;;;5092577;28;20429;-75
2022/06/09 04:11:10;;;;;;;22.33;5.70;;;15.30;99.90;;;;;;5093035;28;20427;-76
2022/06/09 04:13:38;;;;;;;15.73;4.72;;;15.30;99.90;;;;;;5089643;28;20471;-76
2022/06/09 04:16:26;;;;;;;16.80;4.35;;;15.30;99.90;;;;;;5092339;28;20051;-76
2022/06/09 04:18:53;;;;;;;16.33;4.50;;;15.30;99.90;;;;;;5089573;28;20077;-76
2022/06/09 04:21:19;;;;;;;14.63;3.95;;;15.20;99.90;;;;;;5091854;28;20032;-76
2022/06/09 04:23:45;;;;;;;14.73;4.10;;;15.20;99.90;;;;;;5092295;28;20077;-75
2022/06/09 04:26:17;;;;;;;17.20;4.40;;;15.20;99.90;;;;;;5092172;28;20036;-76
2022/06/09 04:28:43;;;;;;;15.23;3.85;;;15.20;99.90;;;;;;5092319;28;20036;-76
2022/06/09 04:31:10;;;;;;;19.67;5.07;;;15.20;99.90;;;;;;5089457;28;20028;-76
2022/06/09 04:33:35;;;;;;;17.88;4.32;;;15.20;99.90;;;;;;5092435;28;20032;-75
2022/06/09 04:36:01;;;;;;;23.13;5.28;;;15.20;99.90;;;;;;5091813;28;20024;-75
2022/06/09 04:38:27;;;;;;;19.08;5.13;;;15.30;99.90;;;;;;5092046;28;20028;-76
2022/06/09 04:40:52;;;;;;;14.45;4.53;;;15.30;99.90;;;;;;5091908;28;20024;-75
2022/06/09 04:43:18;;;;;;;17.27;4.47;;;15.30;99.90;;;;;;5092063;28;20020;-76
2022/06/09 04:45:44;;;;;;;13.77;4.43;;;15.30;99.90;;;;;;5091819;28;20051;-76
2022/06/09 04:48:11;;;;;;;14.45;5.00;;;15.30;99.90;;;;;;5091729;28;20551;-75
2022/06/09 04:50:38;;;;;;;19.42;4.82;;;15.30;99.90;;;;;;5092008;28;20024;-76
2022/06/09 04:53:07;;;;;;;17.02;5.38;;;15.40;99.90;;;;;;5091948;28;20027;-76
2022/06/09 04:55:33;;;;;;;16.38;4.28;;;15.40;99.90;;;;;;5092223;28;20074;-77
2022/06/09 04:57:59;;;;;;;21.30;4.93;;;15.40;99.90;;;;;;5092177;28;20028;-77
2022/06/09 05:00:27;;;;;;;16.15;4.40;;;15.40;99.90;;;;;;5092007;28;20493;-77
2022/06/09 05:02:53;;;;;;;15.80;4.75;;;15.40;99.90;;;;;;5089297;28;20069;-77
2022/06/09 05:05:29;;;;;;;14.02;4.22;;;15.40;99.90;;;;;;5091601;28;20059;-77
2022/06/09 05:07:55;;;;;;;17.23;4.53;;;15.40;99.90;;;;;;5091439;28;20020;-76
2022/06/09 05:10:21;;;;;;;16.88;4.47;;;15.50;99.90;;;;;;5091397;28;20016;-76
2022/06/09 05:12:47;;;;;;;17.30;4.22;;;15.50;99.90;;;;;;5091443;28;20023;-76
2022/06/09 05:15:14;;;;;;;14.75;4.00;;;15.60;99.90;;;;;;5090777;28;20468;-76
2022/06/09 05:17:40;;;;;;;12.45;3.97;;;15.60;99.90;;;;;;5090262;28;20087;-76
2022/06/09 05:20:06;;;;;;;12.07;4.38;;;15.70;99.90;;;;;;5090468;28;20032;-76
2022/06/09 05:22:32;;;;;;;17.17;3.80;;;15.70;99.90;;;;;;5090308;28;20016;-76
2022/06/09 05:24:59;;;;;;;12.75;3.78;;;15.80;99.90;;;;;;5090248;28;20035;-76
2022/06/09 05:27:25;;;;;;;10.65;3.25;;;15.80;99.90;;;;;;5090591;28;20031;-76
2022/06/09 05:29:51;;;;;;;11.38;4.05;;;15.80;99.90;;;;;;5089416;28;20456;-76
2022/06/09 05:32:17;;;;;;;11.82;3.67;;;15.90;99.90;;;;;;5090102;28;20118;-76
2022/06/09 05:34:42;;;;;;;15.35;3.85;;;15.90;99.90;;;;;;5090174;28;20387;-76
2022/06/09 05:37:08;;;;;;;12.73;3.10;;;15.90;99.90;;;;;;5089928;28;20024;-76
2022/06/09 05:45:04;;;;;;;9.80;2.45;;;16.00;99.90;;;;;;5089656;28;20130;-76
2022/06/09 05:47:30;;;;;;;12.48;2.42;;;16.00;99.90;;;;;;5090875;28;20024;-77
2022/06/09 05:49:55;;;;;;;9.13;2.60;;;16.10;99.90;;;;;;5094713;28;20384;-77
2022/06/09 05:52:26;;;;;;;10.20;2.10;;;16.00;99.90;;;;;;5094614;28;20024;-76
2022/06/09 05:54:52;;;;;;;8.57;2.22;;;16.10;99.90;;;;;;5094307;28;20107;-76
2022/06/09 05:57:20;;;;;;;10.07;2.78;;;16.10;99.90;;;;;;5094705;28;20031;-75
2022/06/09 05:59:46;;;;;;;8.30;2.15;;;16.10;99.90;;;;;;5094626;28;20055;-73
2022/06/09 06:02:13;;;;;;;11.25;2.83;;;16.10;99.90;;;;;;5094677;28;20445;-78
2022/06/09 06:04:39;;;;;;;7.88;2.42;;;16.20;99.90;;;;;;5095259;28;20028;-76
2022/06/09 06:07:05;;;;;;;10.70;2.80;;;16.20;99.90;;;;;;5094591;28;20028;-75
2022/06/09 06:09:30;;;;;;;7.80;2.00;;;16.30;99.90;;;;;;5095703;28;20520;-75
2022/06/09 06:11:56;;;;;;;7.00;1.67;;;16.30;99.90;;;;;;5095995;28;20024;-75
2022/06/09 06:14:23;;;;;;;7.40;1.75;;;16.40;99.90;;;;;;5096687;28;20353;-75
2022/06/09 06:16:49;;;;;;;9.38;2.10;;;16.50;99.90;;;;;;5095395;28;20483;-76
2022/06/09 06:19:17;;;;;;;7.20;1.80;;;16.60;99.90;;;;;;5094255;28;20116;-75
2022/06/09 06:21:45;;;;;;;7.38;1.60;;;16.60;99.90;;;;;;5093760;28;20043;-76
2022/06/09 06:24:12;;;;;;;10.07;1.75;;;16.80;99.90;;;;;;5092805;28;20024;-77
2022/06/09 06:26:38;;;;;;;9.05;1.50;;;16.90;99.90;;;;;;5093752;28;20558;-77
2022/06/09 06:29:06;;;;;;;6.47;1.52;;;16.90;99.90;;;;;;5094236;28;20060;-77
2022/06/09 06:31:32;;;;;;;8.07;1.60;;;17.00;99.90;;;;;;5092954;28;20028;-75
2022/06/09 06:33:59;;;;;;;8.60;1.20;;;17.10;99.90;;;;;;5093613;28;20027;-73
2022/06/09 06:36:25;;;;;;;5.70;1.10;;;17.10;99.90;;;;;;5093874;28;20108;-75
2022/06/09 06:38:50;;;;;;;8.98;1.20;;;17.20;99.90;;;;;;5093535;28;20449;-79
2022/06/09 06:41:18;;;;;;;6.35;1.08;;;17.30;99.90;;;;;;5093837;28;21324;-76
2022/06/09 06:43:45;;;;;;;7.63;1.02;;;17.30;99.90;;;;;;5091585;28;20028;-76
2022/06/09 06:46:11;;;;;;;6.63;1.20;;;17.40;99.90;;;;;;5094624;28;20098;-76
2022/06/09 06:48:37;;;;;;;7.65;1.00;;;17.50;99.90;;;;;;5090346;28;20471;-77
2022/06/09 06:51:03;;;;;;;6.30;1.00;;;17.50;99.90;;;;;;5093666;28;20039;-78
2022/06/09 06:53:28;;;;;;;4.40;0.77;;;17.60;99.90;;;;;;5093748;28;20550;-77
2022/06/09 06:55:54;;;;;;;5.97;1.10;;;17.70;99.90;;;;;;5094224;28;20116;-76
2022/06/09 06:58:20;;;;;;;6.35;0.98;;;17.70;99.90;;;;;;5093692;28;20024;-76
2022/06/09 07:00:45;;;;;;;5.35;0.85;;;17.80;99.90;;;;;;5093985;28;20421;-76
2022/06/09 07:03:11;;;;;;;8.05;0.80;;;17.90;99.90;;;;;;5093502;28;20028;-77
2022/06/09 07:05:38;;;;;;;4.05;0.70;;;17.90;99.90;;;;;;5094448;28;20036;-77
2022/06/09 07:08:05;;;;;;;4.05;1.02;;;17.90;99.90;;;;;;5094868;28;20387;-75
2022/06/09 07:10:32;;;;;;;4.57;0.70;;;17.90;99.90;;;;;;5093258;28;20031;-76
2022/06/09 07:12:59;;;;;;;5.90;0.70;;;17.90;99.90;;;;;;5093886;28;20054;-76
2022/06/09 07:15:24;;;;;;;3.33;0.70;;;18.00;99.90;;;;;;5093788;28;20016;-76
2022/06/09 07:17:50;;;;;;;4.47;0.60;;;18.00;99.90;;;;;;5094078;28;20035;-76
2022/06/09 07:20:16;;;;;;;4.85;1.00;;;18.10;99.90;;;;;;5093130;28;20024;-78
2022/06/09 07:22:42;;;;;;;3.22;0.63;;;18.20;99.90;;;;;;5092193;28;20118;-78
2022/06/09 07:25:13;;;;;;;6.95;0.95;;;18.20;99.90;;;;;;5093421;28;20038;-78
2022/06/09 07:27:39;;;;;;;3.30;1.13;;;18.30;99.90;;;;;;5093058;28;20027;-77
2022/06/09 07:30:05;;;;;;;4.20;0.80;;;18.30;99.90;;;;;;5093423;28;20123;-76
2022/06/09 07:32:31;;;;;;;5.53;0.68;;;18.30;99.30;;;;;;5094656;28;20024;-76
2022/06/09 07:34:57;;;;;;;4.22;0.57;;;18.30;99.30;;;;;;5093907;28;20489;-76
2022/06/09 07:37:23;;;;;;;5.05;0.70;;;18.40;99.10;;;;;;5094744;28;20032;-76
2022/06/09 07:39:49;;;;;;;4.35;0.90;;;18.50;98.90;;;;;;5094593;28;20469;-76
2022/06/09 07:42:14;;;;;;;5.03;1.05;;;18.60;99.10;;;;;;5094441;28;20035;-76
2022/06/09 07:44:40;;;;;;;9.43;1.05;;;18.60;98.30;;;;;;5093960;28;20088;-76
2022/06/09 07:47:06;;;;;;;4.07;0.50;;;18.70;98.30;;;;;;5094098;28;20052;-77
2022/06/09 07:49:32;;;;;;;3.13;0.80;;;18.80;98.60;;;;;;5094279;28;20024;-76
2022/06/09 07:51:58;;;;;;;9.95;1.10;;;18.90;98.40;;;;;;5094342;28;20439;-77
2022/06/09 07:54:23;;;;;;;3.92;0.85;;;19.00;97.90;;;;;;5094273;28;20055;-76
2022/06/09 07:56:49;;;;;;;3.83;0.85;;;19.00;97.30;;;;;;5094325;28;20016;-77
2022/06/09 07:59:15;;;;;;;7.78;1.05;;;18.90;97.20;;;;;;5093953;28;20024;-76
2022/06/09 08:01:40;;;;;;;5.35;0.80;;;18.90;97.00;;;;;;5093828;28;20468;-75
2022/06/09 08:04:06;;;;;;;6.78;1.13;;;18.90;97.40;;;;;;5092830;28;20485;-74
2022/06/09 08:06:32;;;;;;;4.30;0.95;;;19.00;97.50;;;;;;5092633;28;20032;-75
2022/06/09 08:09:00;;;;;;;6.32;0.88;;;19.10;97.50;;;;;;5092370;28;20016;-75
2022/06/09 08:11:35;;;;;;;5.03;1.17;;;19.20;97.40;;;;;;5091762;28;20530;-74
2022/06/09 08:14:03;;;;;;;5.22;0.77;;;19.30;97.20;;;;;;5090545;28;20020;-75
2022/06/09 08:16:29;;;;;;;3.63;0.55;;;19.30;96.90;;;;;;5092361;28;20028;-75
2022/06/09 08:18:56;;;;;;;3.55;0.80;;;19.30;96.80;;;;;;5092760;28;20021;-75
2022/06/09 08:21:22;;;;;;;2.50;0.73;;;19.30;96.50;;;;;;5092449;28;20024;-75
2022/06/09 08:23:48;;;;;;;7.00;0.90;;;19.30;96.30;;;;;;5092380;28;20030;-75
2022/06/09 08:26:13;;;;;;;5.65;0.80;;;19.20;96.80;;;;;;5092581;28;20036;-75
2022/06/09 08:28:39;;;;;;;6.28;1.08;;;19.20;97.10;;;;;;5093535;28;20070;-76
2022/06/09 08:31:04;;;;;;;3.38;0.60;;;19.40;97.80;;;;;;5093697;28;20032;-76
2022/06/09 08:33:30;;;;;;;3.28;0.98;;;19.40;97.20;;;;;;5093465;28;20047;-76
2022/06/09 08:35:57;;;;;;;3.78;0.70;;;19.60;96.70;;;;;;5093099;28;20069;-75
2022/06/09 08:38:23;;;;;;;4.53;0.90;;;19.50;96.40;;;;;;5093762;28;20066;-76
2022/06/09 08:41:00;;;;;;;5.53;0.90;;;19.50;96.60;;;;;;5093450;28;20024;-76
2022/06/09 08:43:45;;;;;;;5.03;1.02;;;19.50;96.40;;;;;;5093191;28;20023;-77
2022/06/09 08:46:24;;;;;;;6.70;0.77;;;19.50;96.10;;;;;;5093487;28;20121;-77
2022/06/09 08:48:52;;;;;;;4.78;0.80;;;19.40;96.10;;;;;;5093650;28;20024;-77
2022/06/09 08:51:42;;;;;;;3.47;0.40;;;19.30;95.70;;;;;;5093607;28;20097;-77
2022/06/09 08:54:26;;;;;;;4.57;0.40;;;19.30;95.00;;;;;;5093209;28;20020;-78
2022/06/09 08:56:53;;;;;;;2.90;0.22;;;19.40;95.50;;;;;;5092527;28;20016;-77
2022/06/09 08:59:28;;;;;;;3.78;0.32;;;19.50;93.60;;;;;;5093400;28;20084;-77
2022/06/09 09:02:00;;;;;;;5.70;0.63;;;19.50;93.00;;;;;;5093451;28;20142;-77
2022/06/09 09:04:39;;;;;;;4.90;0.60;;;19.30;93.30;;;;;;5093077;28;20057;-77
2022/06/09 09:07:23;;;;;;;8.05;0.73;;;19.20;94.20;;;;;;5092868;28;20455;-77
2022/06/09 09:09:48;;;;;;;4.93;0.63;;;19.20;94.50;;;;;;5093078;28;20024;-75
2022/06/09 09:12:22;;;;;;;5.63;0.68;;;19.10;94.70;;;;;;5093190;28;20024;-76
2022/06/09 09:14:51;;;;;;;3.67;0.60;;;19.10;95.00;;;;;;5092807;28;20036;-77
2022/06/09 09:17:20;;;;;;;4.47;0.80;;;19.00;95.40;;;;;;5092960;28;20065;-75
2022/06/09 09:20:09;;;;;;;7.72;0.70;;;18.90;95.40;;;;;;5092979;28;20052;-74
2022/06/09 09:23:02;;;;;;;4.75;0.50;;;18.90;95.60;;;;;;5096009;28;20016;-75
2022/06/09 09:25:35;;;;;;;6.18;0.77;;;19.00;95.90;;;;;;5096941;28;20123;-75
2022/06/09 09:28:21;;;;;;;4.97;0.70;;;19.00;96.10;;;;;;5097074;28;20046;-75
2022/06/09 09:31:32;;;;;;;5.55;0.60;;;19.10;96.30;;;;;;5096291;28;20055;-76
2022/06/09 09:34:00;;;;;;;4.90;1.30;;;19.30;96.30;;;;;;5091517;28;20459;-74
2022/06/09 09:36:30;;;;;;;4.68;1.08;;;19.50;96.00;;;;;;5096815;28;20024;-76
2022/06/09 09:39:10;;;;;;;5.93;0.80;;;19.50;96.20;;;;;;5096841;28;20134;-74
2022/06/09 09:41:38;;;;;;;4.53;1.00;;;19.60;96.00;;;;;;5097007;28;20023;-75
2022/06/09 09:44:21;;;;;;;3.22;0.70;;;19.70;95.90;;;;;;5096438;28;20074;-77
2022/06/09 09:47:00;;;;;;;4.88;0.75;;;19.80;96.20;;;;;;5096665;28;20115;-77
2022/06/09 09:49:33;;;;;;;4.25;0.80;;;19.90;95.60;;;;;;5096455;28;20028;-77
2022/06/09 09:52:00;;;;;;;4.85;1.00;;;19.90;95.30;;;;;;5096385;28;20036;-78
2022/06/09 09:54:38;;;;;;;4.05;0.98;;;20.10;95.50;;;;;;5096343;28;20024;-75
2022/06/09 09:57:18;;;;;;;6.80;0.88;;;20.30;94.90;;;;;;5096743;28;20020;-78
2022/06/09 09:59:52;;;;;;;4.90;0.70;;;20.30;94.70;;;;;;5096248;28;20035;-80
2022/06/09 10:08:39;;;;;;;6.45;1.08;;;20.00;95.10;;;;;;5095020;28;19911;-79
2022/06/09 10:14:18;;;;;;;5.03;0.70;;;19.60;96.10;;;;;;5094588;28;20027;-80
2022/06/09 10:16:50;;;;;;;4.47;0.90;;;19.40;96.00;;;;;;5095602;28;20093;-80
2022/06/09 10:19:18;;;;;;;;;;;19.30;97.10;;;;;;5096228;28;20020;-79
2022/06/09 10:21:52;;;;;;;7.78;0.93;;;19.00;97.60;;;;;;5098238;28;19996;-80
2022/06/09 10:24:24;;;;;;;4.20;0.85;;;19.00;97.70;;;;;;5097225;28;20092;-79
2022/06/09 10:26:54;;;;;;;3.70;0.60;;;18.90;97.90;;;;;;5095919;28;20066;-82
2022/06/09 10:29:29;;;;;;;6.65;0.88;;;19.00;98.10;;;;;;5095847;28;20073;-80
2022/06/09 10:32:03;;;;;;;5.00;0.90;;;19.00;98.50;;;;;;5095929;28;20024;-82
2022/06/09 10:34:47;;;;;;;3.50;0.82;;;19.00;98.60;;;;;;5095345;28;20454;-81
2022/06/09 10:37:21;;;;;;;3.70;0.80;;;19.00;98.00;;;;;;5095579;28;20467;-80
2022/06/09 10:39:57;;;;;;;5.43;1.15;;;19.00;97.50;;;;;;5095561;28;20383;-76
2022/06/09 10:42:39;;;;;;;3.00;0.52;;;19.00;96.70;;;;;;5099462;28;20057;-76
2022/06/09 10:45:32;;;;;;;5.18;0.43;;;19.00;96.00;;;;;;5093496;28;20048;-78
2022/06/09 10:57:05;;;;;;;3.90;0.70;;;19.20;95.80;;;;;;5093268;28;20502;-78
2022/06/09 10:59:37;;;;;;;8.30;0.90;;;19.50;94.80;;;;;;5088163;28;20032;-79
2022/06/09 11:02:11;;;;;;;5.18;0.68;;;19.70;94.90;;;;;;5084229;28;20024;-78
2022/06/09 11:04:37;;;;;;;7.50;0.77;;;19.90;93.80;;;;;;5093910;28;20465;-78
2022/06/09 11:07:23;;;;;;;5.28;0.60;;;20.20;93.70;;;;;;5093686;28;20020;-77
2022/06/09 11:10:13;;;;;;;6.57;0.55;;;20.50;92.00;;;;;;5093806;28;20032;-76
2022/06/09 11:13:11;;;;;;;3.67;0.50;;;20.80;90.80;;;;;;5089934;28;20028;-76
2022/06/09 11:15:43;;;;;;;4.55;0.70;;;20.80;90.40;;;;;;5092905;28;20107;-77
2022/06/09 11:18:28;;;;;;;4.15;0.50;;;20.70;90.10;;;;;;5092622;28;20487;-78
2022/06/09 11:21:22;;;;;;;6.13;0.88;;;20.70;90.40;;;;;;5094626;28;20050;-78
2022/06/09 11:24:01;;;;;;;5.47;0.80;;;20.70;90.90;;;;;;5092385;28;20016;-78
2022/06/09 11:26:39;;;;;;;4.45;0.45;;;20.80;91.10;;;;;;5091870;28;20046;-78
2022/06/09 11:29:16;;;;;;;8.70;1.15;;;20.80;90.10;;;;;;5092386;28;20344;-77
2022/06/09 11:32:11;;;;;;;5.80;0.47;;;20.70;88.70;;;;;;5090723;28;20035;-78
2022/06/09 11:35:14;;;;;;;5.45;0.60;;;20.60;88.00;;;;;;5065062;28;20118;-77
2022/06/09 11:37:59;;;;;;;3.92;0.32;;;20.50;87.00;;;;;;5091649;28;20494;-77
2022/06/09 11:40:43;;;;;;;6.40;0.60;;;20.30;84.90;;;;;;5090222;28;20376;-76
2022/06/09 11:43:34;;;;;;;3.88;0.30;;;20.20;84.80;;;;;;5091796;28;20020;-77
2022/06/09 11:46:09;;;;;;;2.65;0.30;;;20.30;84.70;;;;;;5090654;28;20036;-76
2022/06/09 11:48:43;;;;;;;4.50;0.60;;;20.70;84.70;;;;;;5091666;28;20023;-77
2022/06/09 11:51:10;;;;;;;2.55;0.30;;;20.90;83.50;;;;;;5091130;28;20052;-77
2022/06/09 11:53:41;;;;;;;8.02;0.40;;;20.90;82.40;;;;;;5092461;28;20107;-77
2022/06/09 11:56:33;;;;;;;4.03;0.47;;;20.90;82.30;;;;;;5092439;28;20051;-77
2022/06/09 11:59:17;;;;;;;4.50;0.30;;;20.80;80.60;;;;;;5092140;28;20372;-78
2022/06/09 12:01:51;;;;;;;5.57;0.60;;;21.00;81.20;;;;;;5091432;28;20063;-76
2022/06/09 12:04:28;;;;;;;6.40;0.60;;;21.30;79.50;;;;;;5091958;28;20055;-76
2022/06/09 12:07:11;;;;;;;4.65;0.60;;;21.40;77.50;;;;;;5092482;28;20440;-75
2022/06/09 12:10:01;;;;;;;4.15;0.52;;;21.40;77.30;;;;;;5092438;28;20024;-75
2022/06/09 12:12:39;;;;;;;5.47;0.82;;;21.50;78.90;;;;;;5092763;28;20039;-75
2022/06/09 12:15:14;;;;;;;4.65;0.30;;;21.50;78.40;;;;;;5092227;28;20493;-76
2022/06/09 12:18:05;;;;;;;3.28;0.50;;;21.60;75.80;;;;;;5092225;28;20030;-75
2022/06/09 12:20:45;;;;;;;4.15;0.47;;;21.60;74.10;;;;;;5091312;28;20080;-75
2022/06/09 12:23:26;;;;;;;4.13;0.55;;;21.60;75.00;;;;;;5093534;28;20024;-75
2022/06/09 12:26:09;;;;;;;3.05;0.30;;;21.90;74.90;;;;;;5092199;28;20374;-75
2022/06/09 12:28:54;;;;;;;5.60;0.40;;;22.00;73.90;;;;;;5091851;28;20421;-75
2022/06/09 12:31:21;;;;;;;3.03;0.73;;;22.20;72.40;;;;;;5092176;28;20356;-75
2022/06/09 12:34:00;;;;;;;2.65;0.30;;;22.40;71.50;;;;;;5091528;28;20676;-76
2022/06/09 12:36:47;;;;;;;6.25;0.50;;;22.50;72.70;;;;;;5089111;28;20039;-75
2022/06/09 12:39:22;;;;;;;3.85;0.60;;;22.70;69.70;;;;;;5091210;28;20024;-75
2022/06/09 12:42:00;;;;;;;4.78;0.50;;;22.80;69.40;;;;;;5091674;28;20074;-76
2022/06/09 12:44:36;;;;;;;3.92;0.30;;;22.90;68.40;;;;;;5087842;28;20044;-75
2022/06/09 12:47:23;;;;;;;7.65;0.70;;;22.90;67.50;;;;;;5091916;28;20456;-75
2022/06/09 12:49:55;;;;;;;3.03;0.47;;;23.00;68.50;;;;;;5091701;28;20024;-75
2022/06/09 12:52:40;;;;;;;3.15;0.43;;;22.90;66.50;;;;;;5091888;28;20020;-76
2022/06/09 12:55:14;;;;;;;4.25;0.60;;;22.70;66.50;;;;;;5091741;28;20027;-76
2022/06/09 12:57:47;;;;;;;5.40;0.50;;;22.50;66.50;;;;;;5091450;28;20111;-76
2022/06/09 13:00:24;;;;;;;;;;;22.30;67.00;;;;;;5091576;28;20051;-79
2022/06/09 13:02:50;;;;;;;3.80;0.60;;;22.20;69.00;;;;;;5089765;28;19961;-78
2022/06/09 13:05:22;;;;;;;3.00;0.40;;;22.20;68.40;;;;;;5091666;28;20032;-77
2022/06/09 13:07:55;;;;;;;3.95;0.35;;;22.20;68.00;;;;;;5091837;28;20028;-77
2022/06/09 13:10:35;;;;;;;4.75;0.55;;;22.20;68.70;;;;;;5091781;28;20016;-76
2022/06/09 13:13:04;;;;;;;5.22;0.60;;;22.30;68.10;;;;;;5091502;28;20483;-76
2022/06/09 13:15:43;;;;;;;4.80;0.50;;;22.40;67.50;;;;;;5093053;28;20070;-76
2022/06/09 13:18:11;;;;;;;3.75;0.60;;;22.50;67.20;;;;;;5092784;28;20047;-76
2022/06/09 13:20:39;;;;;;;5.45;0.57;;;22.50;66.90;;;;;;5092732;28;20032;-77
2022/06/09 13:23:06;;;;;;;4.10;0.60;;;22.40;67.30;;;;;;5092748;28;20035;-77
2022/06/09 13:25:32;;;;;;;4.93;0.75;;;22.20;68.10;;;;;;5092725;28;20034;-77
2022/06/09 13:27:58;;;;;;;6.53;0.57;;;22.20;68.90;;;;;;5093753;28;20058;-76